sensor_id;sensor_type;location;lat;lon;timestamp;P1;durP1;ratioP1;P2;durP2;ratioP2
21503;SDS011;10913;51.992;9.228;2023-11-19T00:00:18;3.50;;;3.20;;
21503;SDS011;10913;51.992;9.228;2023-11-19T00:02:44;2.10;;;2.00;;
21503;SDS011;10913;51.992;9.228;2023-11-19T00:05:10;1.55;;;1.45;;
21503;SDS011;10913;51.992;9.228;2023-11-19T00:07:36;1.40;;;1.30;;
21503;SDS011;10913;51.992;9.228;2023-11-19T00:10:07;1.90;;;1.80;;
21503;SDS011;10913;51.992;9.228;2023-11-19T00:12:40;1.98;;;1.88;;
21503;SDS011;10913;51.992;9.228;2023-11-19T00:15:07;1.88;;;1.77;;
21503;SDS011;10913;51.992;9.228;2023-11-19T00:17:39;2.58;;;2.38;;
21503;SDS011;10913;51.992;9.228;2023-11-19T00:20:13;1.42;;;1.33;;
21503;SDS011;10913;51.992;9.228;2023-11-19T00:22:42;1.60;;;1.50;;
21503;SDS011;10913;51.992;9.228;2023-11-19T00:25:08;1.75;;;1.65;;
21503;SDS011;10913;51.992;9.228;2023-11-19T00:27:34;1.60;;;1.50;;
21503;SDS011;10913;51.992;9.228;2023-11-19T00:30:02;1.30;;;1.25;;
21503;SDS011;10913;51.992;9.228;2023-11-19T00:32:30;1.48;;;1.30;;
21503;SDS011;10913;51.992;9.228;2023-11-19T00:34:55;1.50;;;1.40;;
21503;SDS011;10913;51.992;9.228;2023-11-19T00:37:21;1.80;;;1.70;;
21503;SDS011;10913;51.992;9.228;2023-11-19T00:39:46;2.60;;;2.40;;
21503;SDS011;10913;51.992;9.228;2023-11-19T00:42:11;2.80;;;2.60;;
21503;SDS011;10913;51.992;9.228;2023-11-19T00:44:37;3.28;;;3.05;;
21503;SDS011;10913;51.992;9.228;2023-11-19T00:47:02;3.65;;;3.35;;
21503;SDS011;10913;51.992;9.228;2023-11-19T00:49:28;3.67;;;3.38;;
21503;SDS011;10913;51.992;9.228;2023-11-19T00:51:53;4.15;;;3.72;;
21503;SDS011;10913;51.992;9.228;2023-11-19T00:54:19;4.07;;;3.67;;
21503;SDS011;10913;51.992;9.228;2023-11-19T00:56:44;3.00;;;2.80;;
21503;SDS011;10913;51.992;9.228;2023-11-19T00:59:10;2.10;;;2.00;;
21503;SDS011;10913;51.992;9.228;2023-11-19T01:01:35;2.70;;;2.50;;
21503;SDS011;10913;51.992;9.228;2023-11-19T01:04:01;2.33;;;1.70;;
21503;SDS011;10913;51.992;9.228;2023-11-19T01:06:27;1.60;;;1.50;;
21503;SDS011;10913;51.992;9.228;2023-11-19T01:08:53;1.40;;;1.30;;
21503;SDS011;10913;51.992;9.228;2023-11-19T01:11:20;1.42;;;1.30;;
21503;SDS011;10913;51.992;9.228;2023-11-19T01:13:46;2.45;;;1.30;;
21503;SDS011;10913;51.992;9.228;2023-11-19T01:16:11;1.58;;;1.48;;
21503;SDS011;10913;51.992;9.228;2023-11-19T01:18:38;2.00;;;1.35;;
21503;SDS011;10913;51.992;9.228;2023-11-19T01:21:03;1.65;;;1.30;;
21503;SDS011;10913;51.992;9.228;2023-11-19T01:23:29;1.63;;;1.10;;
21503;SDS011;10913;51.992;9.228;2023-11-19T01:25:54;1.77;;;1.40;;
21503;SDS011;10913;51.992;9.228;2023-11-19T01:28:20;1.50;;;1.40;;
21503;SDS011;10913;51.992;9.228;2023-11-19T01:30:45;2.10;;;1.45;;
21503;SDS011;10913;51.992;9.228;2023-11-19T01:33:10;1.40;;;1.30;;
21503;SDS011;10913;51.992;9.228;2023-11-19T01:35:36;1.30;;;1.20;;
21503;SDS011;10913;51.992;9.228;2023-11-19T01:38:01;1.60;;;1.50;;
21503;SDS011;10913;51.992;9.228;2023-11-19T01:40:26;1.13;;;1.05;;
21503;SDS011;10913;51.992;9.228;2023-11-19T01:42:52;0.90;;;0.90;;
21503;SDS011;10913;51.992;9.228;2023-11-19T01:45:21;1.10;;;1.10;;
21503;SDS011;10913;51.992;9.228;2023-11-19T01:47:52;1.40;;;1.30;;
21503;SDS011;10913;51.992;9.228;2023-11-19T01:50:17;1.40;;;1.20;;
21503;SDS011;10913;51.992;9.228;2023-11-19T01:52:44;1.48;;;1.10;;
21503;SDS011;10913;51.992;9.228;2023-11-19T01:55:10;1.00;;;1.00;;
21503;SDS011;10913;51.992;9.228;2023-11-19T01:57:36;0.98;;;0.98;;
21503;SDS011;10913;51.992;9.228;2023-11-19T02:00:06;1.20;;;1.10;;
21503;SDS011;10913;51.992;9.228;2023-11-19T02:02:36;1.35;;;1.10;;
21503;SDS011;10913;51.992;9.228;2023-11-19T02:05:01;1.83;;;1.00;;
21503;SDS011;10913;51.992;9.228;2023-11-19T02:07:27;0.90;;;0.90;;
21503;SDS011;10913;51.992;9.228;2023-11-19T02:09:53;0.80;;;0.80;;
21503;SDS011;10913;51.992;9.228;2023-11-19T02:12:19;1.13;;;0.90;;
21503;SDS011;10913;51.992;9.228;2023-11-19T02:14:45;1.08;;;0.85;;
21503;SDS011;10913;51.992;9.228;2023-11-19T02:17:26;0.80;;;0.80;;
21503;SDS011;10913;51.992;9.228;2023-11-19T02:19:53;0.70;;;0.70;;
21503;SDS011;10913;51.992;9.228;2023-11-19T02:22:18;0.70;;;0.70;;
21503;SDS011;10913;51.992;9.228;2023-11-19T02:24:45;0.70;;;0.70;;
21503;SDS011;10913;51.992;9.228;2023-11-19T02:27:16;0.80;;;0.80;;
21503;SDS011;10913;51.992;9.228;2023-11-19T02:29:54;1.00;;;0.90;;
21503;SDS011;10913;51.992;9.228;2023-11-19T02:32:19;0.90;;;0.90;;
21503;SDS011;10913;51.992;9.228;2023-11-19T02:34:45;0.93;;;0.93;;
21503;SDS011;10913;51.992;9.228;2023-11-19T02:37:10;0.88;;;0.88;;
21503;SDS011;10913;51.992;9.228;2023-11-19T02:39:36;0.90;;;0.90;;
21503;SDS011;10913;51.992;9.228;2023-11-19T02:42:02;0.90;;;0.90;;
21503;SDS011;10913;51.992;9.228;2023-11-19T02:44:27;0.82;;;0.80;;
21503;SDS011;10913;51.992;9.228;2023-11-19T02:46:55;0.90;;;0.90;;
21503;SDS011;10913;51.992;9.228;2023-11-19T02:49:24;0.70;;;0.70;;
21503;SDS011;10913;51.992;9.228;2023-11-19T02:51:49;0.80;;;0.80;;
21503;SDS011;10913;51.992;9.228;2023-11-19T02:54:15;1.13;;;1.00;;
21503;SDS011;10913;51.992;9.228;2023-11-19T02:56:42;1.13;;;1.13;;
21503;SDS011;10913;51.992;9.228;2023-11-19T02:59:07;2.17;;;1.10;;
21503;SDS011;10913;51.992;9.228;2023-11-19T03:01:40;1.08;;;0.95;;
21503;SDS011;10913;51.992;9.228;2023-11-19T03:04:08;0.90;;;0.90;;
21503;SDS011;10913;51.992;9.228;2023-11-19T03:06:37;1.17;;;1.08;;
21503;SDS011;10913;51.992;9.228;2023-11-19T03:09:02;1.08;;;1.02;;
21503;SDS011;10913;51.992;9.228;2023-11-19T03:11:33;1.52;;;1.23;;
21503;SDS011;10913;51.992;9.228;2023-11-19T03:13:58;1.10;;;1.10;;
21503;SDS011;10913;51.992;9.228;2023-11-19T03:16:24;1.30;;;1.20;;
21503;SDS011;10913;51.992;9.228;2023-11-19T03:18:49;1.20;;;1.10;;
21503;SDS011;10913;51.992;9.228;2023-11-19T03:21:14;1.48;;;1.35;;
21503;SDS011;10913;51.992;9.228;2023-11-19T03:23:40;1.45;;;1.30;;
21503;SDS011;10913;51.992;9.228;2023-11-19T03:26:05;1.42;;;1.33;;
21503;SDS011;10913;51.992;9.228;2023-11-19T03:28:31;1.30;;;1.20;;
21503;SDS011;10913;51.992;9.228;2023-11-19T03:30:56;2.08;;;1.33;;
21503;SDS011;10913;51.992;9.228;2023-11-19T03:33:22;1.40;;;1.30;;
21503;SDS011;10913;51.992;9.228;2023-11-19T03:35:47;1.83;;;1.30;;
21503;SDS011;10913;51.992;9.228;2023-11-19T03:38:12;1.35;;;1.25;;
21503;SDS011;10913;51.992;9.228;2023-11-19T03:40:39;1.15;;;1.08;;
21503;SDS011;10913;51.992;9.228;2023-11-19T03:43:05;1.60;;;1.50;;
21503;SDS011;10913;51.992;9.228;2023-11-19T03:45:31;2.50;;;1.80;;
21503;SDS011;10913;51.992;9.228;2023-11-19T03:47:56;1.55;;;1.45;;
21503;SDS011;10913;51.992;9.228;2023-11-19T03:50:21;1.77;;;1.67;;
21503;SDS011;10913;51.992;9.228;2023-11-19T03:52:47;1.80;;;1.70;;
21503;SDS011;10913;51.992;9.228;2023-11-19T03:55:13;1.60;;;1.50;;
21503;SDS011;10913;51.992;9.228;2023-11-19T03:57:38;1.98;;;1.80;;
21503;SDS011;10913;51.992;9.228;2023-11-19T04:00:04;1.92;;;1.83;;
21503;SDS011;10913;51.992;9.228;2023-11-19T04:02:36;2.97;;;2.50;;
21503;SDS011;10913;51.992;9.228;2023-11-19T04:05:01;2.40;;;2.20;;
21503;SDS011;10913;51.992;9.228;2023-11-19T04:07:28;4.30;;;3.90;;
21503;SDS011;10913;51.992;9.228;2023-11-19T04:09:54;5.22;;;4.15;;
21503;SDS011;10913;51.992;9.228;2023-11-19T04:12:19;6.78;;;4.40;;
21503;SDS011;10913;51.992;9.228;2023-11-19T04:14:44;6.35;;;4.57;;
21503;SDS011;10913;51.992;9.228;2023-11-19T04:17:10;6.28;;;4.63;;
21503;SDS011;10913;51.992;9.228;2023-11-19T04:19:35;6.45;;;5.70;;
21503;SDS011;10913;51.992;9.228;2023-11-19T04:22:01;7.30;;;5.65;;
21503;SDS011;10913;51.992;9.228;2023-11-19T04:24:27;9.68;;;6.03;;
21503;SDS011;10913;51.992;9.228;2023-11-19T04:26:52;9.18;;;6.82;;
21503;SDS011;10913;51.992;9.228;2023-11-19T04:29:17;10.70;;;7.07;;
21503;SDS011;10913;51.992;9.228;2023-11-19T04:31:43;9.80;;;6.90;;
21503;SDS011;10913;51.992;9.228;2023-11-19T04:34:11;12.77;;;7.50;;
21503;SDS011;10913;51.992;9.228;2023-11-19T04:36:37;12.32;;;8.18;;
21503;SDS011;10913;51.992;9.228;2023-11-19T04:39:04;12.30;;;7.40;;
21503;SDS011;10913;51.992;9.228;2023-11-19T04:41:45;12.80;;;7.90;;
21503;SDS011;10913;51.992;9.228;2023-11-19T04:44:11;12.73;;;7.30;;
21503;SDS011;10913;51.992;9.228;2023-11-19T04:46:36;13.60;;;8.38;;
21503;SDS011;10913;51.992;9.228;2023-11-19T04:49:02;11.40;;;7.90;;
21503;SDS011;10913;51.992;9.228;2023-11-19T04:51:27;10.68;;;6.75;;
21503;SDS011;10913;51.992;9.228;2023-11-19T04:53:52;16.10;;;7.70;;
21503;SDS011;10913;51.992;9.228;2023-11-19T04:56:18;10.98;;;6.70;;
21503;SDS011;10913;51.992;9.228;2023-11-19T04:58:44;15.38;;;8.25;;
21503;SDS011;10913;51.992;9.228;2023-11-19T05:01:13;15.18;;;8.00;;
21503;SDS011;10913;51.992;9.228;2023-11-19T05:03:41;15.85;;;8.20;;
21503;SDS011;10913;51.992;9.228;2023-11-19T05:06:07;14.27;;;7.13;;
21503;SDS011;10913;51.992;9.228;2023-11-19T05:08:32;14.65;;;7.47;;
21503;SDS011;10913;51.992;9.228;2023-11-19T05:10:58;12.23;;;6.53;;
21503;SDS011;10913;51.992;9.228;2023-11-19T05:13:24;14.63;;;6.00;;
21503;SDS011;10913;51.992;9.228;2023-11-19T05:15:49;10.55;;;5.63;;
21503;SDS011;10913;51.992;9.228;2023-11-19T05:18:15;9.50;;;5.20;;
21503;SDS011;10913;51.992;9.228;2023-11-19T05:20:40;16.50;;;5.50;;
21503;SDS011;10913;51.992;9.228;2023-11-19T05:23:06;11.18;;;5.22;;
21503;SDS011;10913;51.992;9.228;2023-11-19T05:25:31;14.15;;;4.97;;
21503;SDS011;10913;51.992;9.228;2023-11-19T05:27:56;10.55;;;4.28;;
21503;SDS011;10913;51.992;9.228;2023-11-19T05:30:22;11.40;;;4.40;;
21503;SDS011;10913;51.992;9.228;2023-11-19T05:32:48;10.23;;;3.92;;
21503;SDS011;10913;51.992;9.228;2023-11-19T05:35:13;9.50;;;4.22;;
21503;SDS011;10913;51.992;9.228;2023-11-19T05:37:38;10.43;;;3.90;;
21503;SDS011;10913;51.992;9.228;2023-11-19T05:40:04;10.18;;;4.05;;
21503;SDS011;10913;51.992;9.228;2023-11-19T05:42:38;11.52;;;3.22;;
21503;SDS011;10913;51.992;9.228;2023-11-19T05:45:03;11.05;;;4.22;;
21503;SDS011;10913;51.992;9.228;2023-11-19T05:47:29;8.85;;;3.05;;
21503;SDS011;10913;51.992;9.228;2023-11-19T05:49:54;8.55;;;3.38;;
21503;SDS011;10913;51.992;9.228;2023-11-19T05:52:19;7.63;;;3.15;;
21503;SDS011;10913;51.992;9.228;2023-11-19T05:54:47;10.18;;;3.90;;
21503;SDS011;10913;51.992;9.228;2023-11-19T05:57:16;11.18;;;3.75;;
21503;SDS011;10913;51.992;9.228;2023-11-19T05:59:47;13.98;;;3.95;;
21503;SDS011;10913;51.992;9.228;2023-11-19T06:02:13;13.23;;;4.00;;
21503;SDS011;10913;51.992;9.228;2023-11-19T06:04:38;12.10;;;4.35;;
21503;SDS011;10913;51.992;9.228;2023-11-19T06:07:04;12.88;;;4.57;;
21503;SDS011;10913;51.992;9.228;2023-11-19T06:09:30;12.52;;;4.50;;
21503;SDS011;10913;51.992;9.228;2023-11-19T06:11:58;10.15;;;4.78;;
21503;SDS011;10913;51.992;9.228;2023-11-19T06:14:26;10.38;;;4.82;;
21503;SDS011;10913;51.992;9.228;2023-11-19T06:16:52;14.27;;;4.97;;
21503;SDS011;10913;51.992;9.228;2023-11-19T06:19:17;13.68;;;5.18;;
21503;SDS011;10913;51.992;9.228;2023-11-19T06:21:42;12.43;;;5.50;;
21503;SDS011;10913;51.992;9.228;2023-11-19T06:24:09;13.93;;;5.55;;
21503;SDS011;10913;51.992;9.228;2023-11-19T06:26:34;14.70;;;6.22;;
21503;SDS011;10913;51.992;9.228;2023-11-19T06:29:00;14.25;;;6.30;;
21503;SDS011;10913;51.992;9.228;2023-11-19T06:31:25;14.25;;;6.32;;
21503;SDS011;10913;51.992;9.228;2023-11-19T06:33:51;13.65;;;6.18;;
21503;SDS011;10913;51.992;9.228;2023-11-19T06:36:16;14.00;;;6.00;;
21503;SDS011;10913;51.992;9.228;2023-11-19T06:38:42;13.77;;;5.78;;
21503;SDS011;10913;51.992;9.228;2023-11-19T06:41:08;13.77;;;6.10;;
21503;SDS011;10913;51.992;9.228;2023-11-19T06:43:37;13.10;;;5.20;;
21503;SDS011;10913;51.992;9.228;2023-11-19T06:46:02;17.58;;;5.70;;
21503;SDS011;10913;51.992;9.228;2023-11-19T06:48:31;13.40;;;4.78;;
21503;SDS011;10913;51.992;9.228;2023-11-19T06:50:57;18.20;;;5.55;;
21503;SDS011;10913;51.992;9.228;2023-11-19T06:53:22;19.52;;;5.88;;
21503;SDS011;10913;51.992;9.228;2023-11-19T06:55:47;19.08;;;4.85;;
21503;SDS011;10913;51.992;9.228;2023-11-19T06:58:13;23.98;;;5.97;;
21503;SDS011;10913;51.992;9.228;2023-11-19T07:00:38;18.00;;;5.13;;
21503;SDS011;10913;51.992;9.228;2023-11-19T07:03:03;21.67;;;5.40;;
21503;SDS011;10913;51.992;9.228;2023-11-19T07:05:30;17.67;;;5.20;;
21503;SDS011;10913;51.992;9.228;2023-11-19T07:07:56;22.30;;;5.18;;
21503;SDS011;10913;51.992;9.228;2023-11-19T07:10:21;22.60;;;5.38;;
21503;SDS011;10913;51.992;9.228;2023-11-19T07:12:47;20.13;;;5.72;;
21503;SDS011;10913;51.992;9.228;2023-11-19T07:15:15;17.23;;;5.43;;
21503;SDS011;10913;51.992;9.228;2023-11-19T07:17:42;15.63;;;4.75;;
21503;SDS011;10913;51.992;9.228;2023-11-19T07:20:10;16.08;;;4.47;;
21503;SDS011;10913;51.992;9.228;2023-11-19T07:22:38;17.42;;;4.43;;
21503;SDS011;10913;51.992;9.228;2023-11-19T07:25:04;15.52;;;5.53;;
21503;SDS011;10913;51.992;9.228;2023-11-19T07:27:29;21.23;;;5.65;;
21503;SDS011;10913;51.992;9.228;2023-11-19T07:29:55;16.00;;;4.20;;
21503;SDS011;10913;51.992;9.228;2023-11-19T07:32:21;20.38;;;4.95;;
21503;SDS011;10913;51.992;9.228;2023-11-19T07:34:46;17.17;;;4.57;;
21503;SDS011;10913;51.992;9.228;2023-11-19T07:37:11;17.98;;;4.82;;
21503;SDS011;10913;51.992;9.228;2023-11-19T07:39:37;19.50;;;5.45;;
21503;SDS011;10913;51.992;9.228;2023-11-19T07:42:05;19.13;;;5.20;;
21503;SDS011;10913;51.992;9.228;2023-11-19T07:44:31;22.02;;;4.78;;
21503;SDS011;10913;51.992;9.228;2023-11-19T07:46:57;21.65;;;4.93;;
21503;SDS011;10913;51.992;9.228;2023-11-19T07:49:23;25.10;;;5.40;;
21503;SDS011;10913;51.992;9.228;2023-11-19T07:51:49;20.58;;;4.88;;
21503;SDS011;10913;51.992;9.228;2023-11-19T07:54:14;20.13;;;5.32;;
21503;SDS011;10913;51.992;9.228;2023-11-19T07:56:39;18.80;;;4.88;;
21503;SDS011;10913;51.992;9.228;2023-11-19T07:59:05;25.15;;;5.45;;
21503;SDS011;10913;51.992;9.228;2023-11-19T08:01:31;20.80;;;4.70;;
21503;SDS011;10913;51.992;9.228;2023-11-19T08:03:57;17.30;;;4.05;;
21503;SDS011;10913;51.992;9.228;2023-11-19T08:06:22;27.02;;;5.03;;
21503;SDS011;10913;51.992;9.228;2023-11-19T08:08:47;15.82;;;4.35;;
21503;SDS011;10913;51.992;9.228;2023-11-19T08:11:13;20.83;;;4.63;;
21503;SDS011;10913;51.992;9.228;2023-11-19T08:13:39;17.27;;;4.65;;
21503;SDS011;10913;51.992;9.228;2023-11-19T08:16:04;24.05;;;5.00;;
21503;SDS011;10913;51.992;9.228;2023-11-19T08:18:30;23.90;;;4.72;;
21503;SDS011;10913;51.992;9.228;2023-11-19T08:20:56;21.65;;;4.68;;
21503;SDS011;10913;51.992;9.228;2023-11-19T08:23:23;23.27;;;5.03;;
21503;SDS011;10913;51.992;9.228;2023-11-19T08:25:50;21.45;;;5.25;;
21503;SDS011;10913;51.992;9.228;2023-11-19T08:28:17;24.85;;;5.68;;
21503;SDS011;10913;51.992;9.228;2023-11-19T08:30:42;17.63;;;4.68;;
21503;SDS011;10913;51.992;9.228;2023-11-19T08:33:09;14.00;;;4.63;;
21503;SDS011;10913;51.992;9.228;2023-11-19T08:35:34;20.75;;;4.97;;
21503;SDS011;10913;51.992;9.228;2023-11-19T08:38:00;22.63;;;5.18;;
21503;SDS011;10913;51.992;9.228;2023-11-19T08:40:26;23.65;;;5.13;;
21503;SDS011;10913;51.992;9.228;2023-11-19T08:42:52;18.02;;;4.38;;
21503;SDS011;10913;51.992;9.228;2023-11-19T08:45:17;17.35;;;4.63;;
21503;SDS011;10913;51.992;9.228;2023-11-19T08:47:42;21.63;;;5.43;;
21503;SDS011;10913;51.992;9.228;2023-11-19T08:50:10;21.30;;;5.18;;
21503;SDS011;10913;51.992;9.228;2023-11-19T08:52:36;20.60;;;4.80;;
21503;SDS011;10913;51.992;9.228;2023-11-19T08:55:01;23.15;;;5.20;;
21503;SDS011;10913;51.992;9.228;2023-11-19T08:57:28;22.35;;;5.05;;
21503;SDS011;10913;51.992;9.228;2023-11-19T08:59:53;23.38;;;5.22;;
21503;SDS011;10913;51.992;9.228;2023-11-19T09:02:18;22.00;;;4.82;;
21503;SDS011;10913;51.992;9.228;2023-11-19T09:04:44;22.50;;;5.63;;
21503;SDS011;10913;51.992;9.228;2023-11-19T09:07:09;17.40;;;4.50;;
21503;SDS011;10913;51.992;9.228;2023-11-19T09:09:35;15.05;;;4.32;;
21503;SDS011;10913;51.992;9.228;2023-11-19T09:12:01;18.02;;;4.35;;
21503;SDS011;10913;51.992;9.228;2023-11-19T09:14:28;17.23;;;4.78;;
21503;SDS011;10913;51.992;9.228;2023-11-19T09:16:54;20.73;;;5.47;;
21503;SDS011;10913;51.992;9.228;2023-11-19T09:19:21;18.05;;;4.40;;
21503;SDS011;10913;51.992;9.228;2023-11-19T09:21:46;26.17;;;5.90;;
21503;SDS011;10913;51.992;9.228;2023-11-19T09:24:13;21.52;;;4.72;;
21503;SDS011;10913;51.992;9.228;2023-11-19T09:26:38;20.60;;;4.70;;
21503;SDS011;10913;51.992;9.228;2023-11-19T09:29:06;13.55;;;4.13;;
21503;SDS011;10913;51.992;9.228;2023-11-19T09:31:32;19.95;;;4.85;;
21503;SDS011;10913;51.992;9.228;2023-11-19T09:33:58;19.33;;;4.80;;
21503;SDS011;10913;51.992;9.228;2023-11-19T09:36:23;20.20;;;4.88;;
21503;SDS011;10913;51.992;9.228;2023-11-19T09:38:48;27.38;;;6.35;;
21503;SDS011;10913;51.992;9.228;2023-11-19T09:41:14;15.57;;;3.90;;
21503;SDS011;10913;51.992;9.228;2023-11-19T09:43:40;19.67;;;5.32;;
21503;SDS011;10913;51.992;9.228;2023-11-19T09:46:08;24.73;;;5.45;;
21503;SDS011;10913;51.992;9.228;2023-11-19T09:48:36;23.10;;;5.85;;
21503;SDS011;10913;51.992;9.228;2023-11-19T09:51:03;18.73;;;4.85;;
21503;SDS011;10913;51.992;9.228;2023-11-19T09:53:29;22.73;;;5.28;;
21503;SDS011;10913;51.992;9.228;2023-11-19T09:55:56;20.85;;;4.85;;
21503;SDS011;10913;51.992;9.228;2023-11-19T09:58:28;14.60;;;4.50;;
21503;SDS011;10913;51.992;9.228;2023-11-19T10:00:54;20.15;;;4.68;;
21503;SDS011;10913;51.992;9.228;2023-11-19T10:03:20;16.30;;;4.75;;
21503;SDS011;10913;51.992;9.228;2023-11-19T10:05:48;17.85;;;4.55;;
21503;SDS011;10913;51.992;9.228;2023-11-19T10:08:13;19.90;;;5.20;;
21503;SDS011;10913;51.992;9.228;2023-11-19T10:10:39;18.88;;;6.05;;
21503;SDS011;10913;51.992;9.228;2023-11-19T10:13:04;16.05;;;4.05;;
21503;SDS011;10913;51.992;9.228;2023-11-19T10:15:31;13.57;;;3.88;;
21503;SDS011;10913;51.992;9.228;2023-11-19T10:18:01;14.55;;;4.18;;
21503;SDS011;10913;51.992;9.228;2023-11-19T10:20:27;16.65;;;4.90;;
21503;SDS011;10913;51.992;9.228;2023-11-19T10:22:55;19.15;;;4.65;;
21503;SDS011;10913;51.992;9.228;2023-11-19T10:25:22;15.20;;;4.53;;
21503;SDS011;10913;51.992;9.228;2023-11-19T10:27:49;14.82;;;4.13;;
21503;SDS011;10913;51.992;9.228;2023-11-19T10:30:18;15.18;;;4.35;;
21503;SDS011;10913;51.992;9.228;2023-11-19T10:32:50;12.38;;;3.72;;
21503;SDS011;10913;51.992;9.228;2023-11-19T10:38:13;13.68;;;3.83;;
21503;SDS011;10913;51.992;9.228;2023-11-19T10:40:40;13.57;;;3.72;;
21503;SDS011;10913;51.992;9.228;2023-11-19T10:43:06;18.60;;;4.90;;
21503;SDS011;10913;51.992;9.228;2023-11-19T10:45:35;14.18;;;3.97;;
21503;SDS011;10913;51.992;9.228;2023-11-19T10:48:01;16.33;;;4.53;;
21503;SDS011;10913;51.992;9.228;2023-11-19T10:50:29;16.88;;;4.13;;
21503;SDS011;10913;51.992;9.228;2023-11-19T10:52:58;16.90;;;4.00;;
21503;SDS011;10913;51.992;9.228;2023-11-19T10:55:26;15.30;;;3.97;;
21503;SDS011;10913;51.992;9.228;2023-11-19T10:57:55;17.40;;;4.22;;
21503;SDS011;10913;51.992;9.228;2023-11-19T11:00:26;21.25;;;4.80;;
21503;SDS011;10913;51.992;9.228;2023-11-19T11:02:55;21.02;;;5.03;;
21503;SDS011;10913;51.992;9.228;2023-11-19T11:05:24;21.90;;;5.10;;
21503;SDS011;10913;51.992;9.228;2023-11-19T11:07:51;14.57;;;3.88;;
21503;SDS011;10913;51.992;9.228;2023-11-19T11:10:20;18.35;;;4.25;;
21503;SDS011;10913;51.992;9.228;2023-11-19T11:12:48;22.67;;;4.85;;
21503;SDS011;10913;51.992;9.228;2023-11-19T11:15:15;18.98;;;4.22;;
21503;SDS011;10913;51.992;9.228;2023-11-19T11:17:43;16.23;;;4.35;;
21503;SDS011;10913;51.992;9.228;2023-11-19T11:20:11;20.90;;;4.28;;
21503;SDS011;10913;51.992;9.228;2023-11-19T11:22:46;17.58;;;4.38;;
21503;SDS011;10913;51.992;9.228;2023-11-19T11:25:38;19.88;;;4.55;;
21503;SDS011;10913;51.992;9.228;2023-11-19T11:39:49;18.45;;;5.55;;
21503;SDS011;10913;51.992;9.228;2023-11-19T11:53:13;21.80;;;4.60;;
21503;SDS011;10913;51.992;9.228;2023-11-19T11:55:34;19.55;;;4.70;;
21503;SDS011;10913;51.992;9.228;2023-11-19T11:58:01;23.10;;;4.60;;
21503;SDS011;10913;51.992;9.228;2023-11-19T12:03:04;20.70;;;4.68;;
21503;SDS011;10913;51.992;9.228;2023-11-19T12:05:30;19.15;;;4.80;;
21503;SDS011;10913;51.992;9.228;2023-11-19T12:07:58;17.17;;;4.57;;
21503;SDS011;10913;51.992;9.228;2023-11-19T12:10:26;16.05;;;4.60;;
21503;SDS011;10913;51.992;9.228;2023-11-19T12:13:00;20.77;;;5.93;;
21503;SDS011;10913;51.992;9.228;2023-11-19T12:15:27;22.08;;;5.30;;
21503;SDS011;10913;51.992;9.228;2023-11-19T12:17:55;19.15;;;4.45;;
21503;SDS011;10913;51.992;9.228;2023-11-19T12:20:22;23.38;;;5.00;;
21503;SDS011;10913;51.992;9.228;2023-11-19T12:22:48;26.58;;;7.03;;
21503;SDS011;10913;51.992;9.228;2023-11-19T12:25:15;16.30;;;4.28;;
21503;SDS011;10913;51.992;9.228;2023-11-19T12:27:46;19.67;;;4.70;;
21503;SDS011;10913;51.992;9.228;2023-11-19T12:30:22;19.55;;;4.68;;
21503;SDS011;10913;51.992;9.228;2023-11-19T12:32:51;19.73;;;4.18;;
21503;SDS011;10913;51.992;9.228;2023-11-19T12:35:18;20.13;;;4.75;;
21503;SDS011;10913;51.992;9.228;2023-11-19T12:40:17;19.08;;;4.43;;
21503;SDS011;10913;51.992;9.228;2023-11-19T12:42:53;13.68;;;4.15;;
21503;SDS011;10913;51.992;9.228;2023-11-19T12:45:19;22.25;;;5.13;;
21503;SDS011;10913;51.992;9.228;2023-11-19T12:47:46;19.10;;;4.07;;
21503;SDS011;10913;51.992;9.228;2023-11-19T12:50:13;19.02;;;4.43;;
21503;SDS011;10913;51.992;9.228;2023-11-19T12:52:39;23.98;;;5.82;;
21503;SDS011;10913;51.992;9.228;2023-11-19T12:55:05;25.60;;;5.75;;
21503;SDS011;10913;51.992;9.228;2023-11-19T12:57:49;20.73;;;5.03;;
21503;SDS011;10913;51.992;9.228;2023-11-19T13:00:18;15.20;;;4.32;;
21503;SDS011;10913;51.992;9.228;2023-11-19T13:02:48;22.85;;;5.30;;
21503;SDS011;10913;51.992;9.228;2023-11-19T13:05:25;17.55;;;4.53;;
21503;SDS011;10913;51.992;9.228;2023-11-19T13:07:58;17.77;;;4.38;;
21503;SDS011;10913;51.992;9.228;2023-11-19T13:10:28;16.15;;;4.43;;
21503;SDS011;10913;51.992;9.228;2023-11-19T13:13:08;24.25;;;5.10;;
21503;SDS011;10913;51.992;9.228;2023-11-19T13:15:34;20.98;;;4.55;;
21503;SDS011;10913;51.992;9.228;2023-11-19T13:18:00;17.83;;;4.07;;
21503;SDS011;10913;51.992;9.228;2023-11-19T13:20:27;20.17;;;4.80;;
21503;SDS011;10913;51.992;9.228;2023-11-19T13:22:53;22.13;;;4.65;;
21503;SDS011;10913;51.992;9.228;2023-11-19T13:25:22;19.45;;;4.53;;
21503;SDS011;10913;51.992;9.228;2023-11-19T13:27:47;27.40;;;5.53;;
21503;SDS011;10913;51.992;9.228;2023-11-19T13:30:13;21.02;;;4.68;;
21503;SDS011;10913;51.992;9.228;2023-11-19T13:32:39;17.83;;;4.88;;
21503;SDS011;10913;51.992;9.228;2023-11-19T13:35:04;19.75;;;4.88;;
21503;SDS011;10913;51.992;9.228;2023-11-19T13:37:30;14.90;;;4.28;;
21503;SDS011;10913;51.992;9.228;2023-11-19T13:39:56;21.23;;;4.93;;
21503;SDS011;10913;51.992;9.228;2023-11-19T13:42:21;19.10;;;4.15;;
21503;SDS011;10913;51.992;9.228;2023-11-19T13:44:46;15.20;;;4.03;;
21503;SDS011;10913;51.992;9.228;2023-11-19T13:47:11;20.42;;;5.82;;
21503;SDS011;10913;51.992;9.228;2023-11-19T13:49:38;16.88;;;4.63;;
21503;SDS011;10913;51.992;9.228;2023-11-19T13:52:04;21.23;;;5.18;;
21503;SDS011;10913;51.992;9.228;2023-11-19T13:54:29;14.98;;;3.97;;
21503;SDS011;10913;51.992;9.228;2023-11-19T13:56:55;16.63;;;4.57;;
21503;SDS011;10913;51.992;9.228;2023-11-19T13:59:23;17.83;;;4.60;;
21503;SDS011;10913;51.992;9.228;2023-11-19T14:01:48;16.65;;;3.70;;
21503;SDS011;10913;51.992;9.228;2023-11-19T14:04:14;17.52;;;4.10;;
21503;SDS011;10913;51.992;9.228;2023-11-19T14:06:39;15.35;;;4.40;;
21503;SDS011;10913;51.992;9.228;2023-11-19T14:09:06;20.60;;;4.15;;
21503;SDS011;10913;51.992;9.228;2023-11-19T14:11:32;16.98;;;4.35;;
21503;SDS011;10913;51.992;9.228;2023-11-19T14:13:57;16.73;;;4.28;;
21503;SDS011;10913;51.992;9.228;2023-11-19T14:16:26;17.23;;;3.97;;
21503;SDS011;10913;51.992;9.228;2023-11-19T14:18:52;18.92;;;3.90;;
21503;SDS011;10913;51.992;9.228;2023-11-19T14:21:17;13.55;;;3.72;;
21503;SDS011;10913;51.992;9.228;2023-11-19T14:23:43;17.48;;;4.13;;
21503;SDS011;10913;51.992;9.228;2023-11-19T14:26:08;19.25;;;4.68;;
21503;SDS011;10913;51.992;9.228;2023-11-19T14:28:34;23.58;;;4.50;;
21503;SDS011;10913;51.992;9.228;2023-11-19T14:30:59;17.15;;;4.57;;
21503;SDS011;10913;51.992;9.228;2023-11-19T14:33:25;19.08;;;5.95;;
21503;SDS011;10913;51.992;9.228;2023-11-19T14:35:50;17.85;;;4.65;;
21503;SDS011;10913;51.992;9.228;2023-11-19T14:38:17;21.65;;;4.70;;
21503;SDS011;10913;51.992;9.228;2023-11-19T14:40:42;20.65;;;4.38;;
21503;SDS011;10913;51.992;9.228;2023-11-19T14:43:08;17.25;;;4.32;;
21503;SDS011;10913;51.992;9.228;2023-11-19T14:45:35;16.63;;;4.25;;
21503;SDS011;10913;51.992;9.228;2023-11-19T14:48:01;17.10;;;4.13;;
21503;SDS011;10913;51.992;9.228;2023-11-19T14:50:26;16.88;;;4.65;;
21503;SDS011;10913;51.992;9.228;2023-11-19T14:52:52;16.50;;;4.18;;
21503;SDS011;10913;51.992;9.228;2023-11-19T14:55:18;15.25;;;3.70;;
21503;SDS011;10913;51.992;9.228;2023-11-19T14:57:43;20.25;;;5.07;;
21503;SDS011;10913;51.992;9.228;2023-11-19T15:00:09;22.65;;;6.13;;
21503;SDS011;10913;51.992;9.228;2023-11-19T15:02:41;17.90;;;5.10;;
21503;SDS011;10913;51.992;9.228;2023-11-19T15:05:07;15.43;;;4.00;;